Time;durP1;ratioP1;P1;durP2;ratioP2;P2;SDS_P1;SDS_P2;PMS_P1;PMS_P2;Temp;Humidity;BMP_temperature;BMP_pressure;BME280_temperature;BME280_humidity;BME280_pressure;Samples;Min_cycle;Max_cycle;Signal;HPM_P1;HPM_P2
2021/10/04 00:00:27;;;;;;;2.55;1.63;;;;;;;11.85;44.17;94604.56;5010657;28;20391;-75
2021/10/04 00:02:53;;;;;;;3.42;1.88;;;;;;;11.84;44.31;94605.66;5010635;28;20087;-77
2021/10/04 00:05:18;;;;;;;2.55;1.73;;;;;;;11.71;44.32;94569.16;5006004;28;20394;-76
2021/10/04 00:07:43;;;;;;;3.75;1.73;;;;;;;11.82;44.13;94599.06;5010611;28;20029;-76
2021/10/04 00:10:11;;;;;;;2.38;1.80;;;;;;;11.69;44.68;94600.66;5007518;28;20608;-76
2021/10/04 00:12:37;;;;;;;1.50;1.23;;;;;;;11.55;44.83;94586.59;5008916;28;20446;-76
2021/10/04 00:15:05;;;;;;;2.45;2.00;;;;;;;11.81;44.57;94600.94;5009639;28;20056;-76
2021/10/04 00:17:31;;;;;;;2.70;2.00;;;;;;;11.71;44.70;94603.81;5010506;28;20041;-75
2021/10/04 00:19:56;;;;;;;2.00;1.77;;;;;;;11.53;45.00;94594.91;5011868;28;20037;-74
2021/10/04 00:22:22;;;;;;;3.15;1.58;;;;;;;11.52;45.31;94621.81;5008162;28;20076;-77
2021/10/04 00:24:47;;;;;;;3.20;2.05;;;;;;;11.46;45.30;94617.66;5010861;28;20132;-76
2021/10/04 00:27:12;;;;;;;2.80;1.50;;;;;;;11.42;45.36;94608.69;5009954;28;20049;-76
2021/10/04 00:29:38;;;;;;;2.13;1.70;;;;;;;11.34;45.70;94593.41;5005872;28;20049;-76
2021/10/04 00:32:04;;;;;;;2.17;1.67;;;;;;;11.33;45.63;94586.50;5008457;28;20049;-76
2021/10/04 00:34:29;;;;;;;3.60;2.00;;;;;;;11.41;45.60;94607.09;5009712;28;20531;-76
2021/10/04 00:36:55;;;;;;;2.33;1.67;;;;;;;11.34;45.90;94604.88;5006583;28;20041;-73
2021/10/04 00:39:21;;;;;;;1.83;1.52;;;;;;;11.22;45.81;94595.78;5010496;28;20406;-75
2021/10/04 00:41:46;;;;;;;2.45;1.50;;;;;;;11.15;46.12;94594.31;5010457;28;20033;-76
2021/10/04 00:44:12;;;;;;;2.70;1.77;;;;;;;11.23;46.01;94608.03;5006868;28;20029;-76
2021/10/04 00:46:38;;;;;;;2.40;1.92;;;;;;;11.06;46.24;94582.00;5008885;28;20041;-76
2021/10/04 00:49:03;;;;;;;3.53;1.85;;;;;;;11.06;46.18;94587.31;5004956;28;20099;-76
2021/10/04 00:51:29;;;;;;;2.30;2.08;;;;;;;11.01;46.11;94574.91;5009853;28;20025;-76
2021/10/04 00:53:55;;;;;;;2.78;2.00;;;;;;;11.14;46.37;94595.41;5010584;28;20033;-78
2021/10/04 00:56:21;;;;;;;2.42;1.83;;;;;;;11.10;46.17;94583.75;5005393;28;20041;-75
2021/10/04 00:58:47;;;;;;;3.40;2.28;;;;;;;11.01;46.14;94566.91;5001027;28;20037;-76
2021/10/04 01:01:13;;;;;;;3.22;1.98;;;;;;;11.20;46.23;94596.06;5009057;28;20113;-75
2021/10/04 01:03:39;;;;;;;4.30;2.17;;;;;;;11.20;46.38;94597.97;5003434;28;20045;-76
2021/10/04 01:06:04;;;;;;;3.75;1.98;;;;;;;11.06;45.99;94582.78;5009301;28;20416;-76
2021/10/04 01:08:30;;;;;;;3.08;2.08;;;;;;;11.15;45.94;94602.28;5005767;28;20045;-76
2021/10/04 01:10:56;;;;;;;7.53;2.20;;;;;;;11.02;46.13;94586.34;5010873;28;20092;-70
2021/10/04 01:13:22;;;;;;;5.22;2.33;;;;;;;11.05;46.20;94605.16;5006790;28;20060;-74
2021/10/04 01:15:47;;;;;;;2.60;1.77;;;;;;;11.06;46.32;94604.06;5009060;28;20054;-76
2021/10/04 01:18:13;;;;;;;3.00;1.85;;;;;;;11.07;46.20;94602.19;5006855;28;20448;-76
2021/10/04 01:20:39;;;;;;;2.35;1.88;;;;;;;11.00;46.25;94599.94;5006416;28;20508;-76
2021/10/04 01:23:04;;;;;;;4.10;2.30;;;;;;;10.95;46.78;94602.72;5006065;28;20041;-76
2021/10/04 01:25:30;;;;;;;3.72;2.45;;;;;;;10.88;46.69;94586.34;5004770;28;20038;-76
2021/10/04 01:27:56;;;;;;;2.20;2.00;;;;;;;10.92;46.58;94603.28;5011064;28;21221;-76
2021/10/04 01:30:26;;;;;;;2.70;1.73;;;;;;;10.94;46.74;94603.78;5008990;28;21771;-76
2021/10/04 01:32:53;;;;;;;3.95;2.95;;;;;;;10.92;46.80;94599.84;5011464;28;20589;-77
2021/10/04 01:35:20;;;;;;;4.72;1.90;;;;;;;10.73;46.66;94571.44;5014973;28;20570;-77
2021/10/04 01:37:45;;;;;;;2.53;1.95;;;;;;;10.86;47.03;94593.03;5015948;28;20073;-75
2021/10/04 01:40:13;;;;;;;2.28;1.63;;;;;;;10.86;46.71;94593.03;5013192;28;20101;-76
2021/10/04 01:42:39;;;;;;;2.90;1.75;;;;;;;10.87;47.07;94589.28;5007941;28;20037;-77
2021/10/04 01:45:10;;;;;;;4.35;2.08;;;;;;;10.91;46.62;94580.41;5012306;28;20669;-76
2021/10/04 01:47:37;;;;;;;2.53;1.95;;;;;;;10.87;46.73;94582.09;5009841;28;20049;-72
2021/10/04 01:50:04;;;;;;;2.92;1.90;;;;;;;10.84;46.77;94574.72;5015222;28;20030;-77
2021/10/04 01:52:30;;;;;;;2.55;1.70;;;;;;;10.80;46.79;94572.94;5012821;28;20044;-77
2021/10/04 01:54:55;;;;;;;3.15;1.77;;;;;;;10.78;46.83;94581.22;5013384;28;20042;-75
2021/10/04 01:57:21;;;;;;;2.70;2.00;;;;;;;10.70;46.95;94577.38;5008043;28;20333;-75
2021/10/04 01:59:46;;;;;;;3.47;2.20;;;;;;;10.58;47.09;94576.25;5014152;28;20025;-77
2021/10/04 02:02:12;;;;;;;2.47;1.75;;;;;;;10.35;47.21;94539.97;5009846;28;20080;-75
2021/10/04 02:04:37;;;;;;;1.85;1.63;;;;;;;10.50;47.16;94571.63;5011428;28;20058;-77
2021/10/04 02:07:03;;;;;;;5.38;2.20;;;;;;;10.44;47.18;94572.81;5007320;28;20045;-76
2021/10/04 02:09:28;;;;;;;3.60;1.90;;;;;;;10.62;47.05;94595.88;5005022;28;20045;-74
2021/10/04 02:11:54;;;;;;;2.63;1.60;;;;;;;10.55;47.14;94604.25;5010036;28;20029;-77
2021/10/04 02:14:19;;;;;;;3.95;2.05;;;;;;;10.46;47.25;94592.72;5001363;28;20084;-77
2021/10/04 02:16:44;;;;;;;2.45;1.85;;;;;;;10.52;47.48;94596.06;5013795;28;20038;-76
2021/10/04 02:19:11;;;;;;;2.95;2.03;;;;;;;10.47;47.44;94601.47;5008387;28;20518;-77
2021/10/04 02:21:36;;;;;;;4.07;2.60;;;;;;;10.40;47.23;94595.75;5006743;28;20647;-74
2021/10/04 02:24:02;;;;;;;2.85;1.90;;;;;;;10.24;47.34;94580.03;5012749;28;20483;-76
2021/10/04 02:26:28;;;;;;;3.67;2.53;;;;;;;10.41;47.36;94602.66;5004296;28;20042;-75
2021/10/04 02:28:54;;;;;;;2.42;2.05;;;;;;;10.23;47.54;94578.44;5008281;28;20103;-76
2021/10/04 02:31:20;;;;;;;2.85;1.77;;;;;;;10.43;47.45;94611.09;5014102;28;20045;-75
2021/10/04 02:33:45;;;;;;;4.18;2.28;;;;;;;10.38;47.48;94606.66;5012112;28;20831;-76
2021/10/04 02:36:11;;;;;;;4.78;2.97;;;;;;;10.28;47.59;94589.00;5002571;28;20036;-76
2021/10/04 02:38:36;;;;;;;3.92;3.05;;;;;;;10.40;47.27;94606.38;5013387;28;20500;-75
2021/10/04 02:41:02;;;;;;;4.97;3.03;;;;;;;10.34;47.50;94587.03;5012572;28;20124;-77
2021/10/04 02:43:27;;;;;;;5.40;2.72;;;;;;;10.47;47.37;94602.25;5002746;28;20041;-76
2021/10/04 02:45:54;;;;;;;2.97;2.20;;;;;;;10.39;47.42;94610.91;5011598;28;20041;-75
2021/10/04 02:48:21;;;;;;;5.10;3.45;;;;;;;10.36;47.24;94608.84;5011052;28;20021;-76
2021/10/04 02:50:47;;;;;;;4.68;2.20;;;;;;;10.19;47.64;94596.06;5008344;28;20028;-77
2021/10/04 02:53:13;;;;;;;3.97;2.60;;;;;;;10.21;47.85;94611.72;5012650;28;20476;-72
2021/10/04 02:55:39;;;;;;;3.30;2.67;;;;;;;10.16;47.93;94607.28;5014667;28;20140;-76
2021/10/04 02:58:15;;;;;;;4.18;2.47;;;;;;;10.23;47.93;94613.00;5013285;28;20049;-73
2021/10/04 03:00:40;;;;;;;4.60;2.30;;;;;;;10.09;47.75;94590.13;5012022;28;20522;-76
2021/10/04 03:03:06;;;;;;;3.75;2.17;;;;;;;10.16;47.75;94599.31;5012464;28;20425;-75
2021/10/04 03:05:31;;;;;;;3.28;2.50;;;;;;;10.12;48.05;94600.19;5013738;28;20032;-77
2021/10/04 03:07:58;;;;;;;5.28;2.92;;;;;;;10.14;48.00;94613.94;5001750;28;20491;-77
2021/10/04 03:10:24;;;;;;;4.07;2.55;;;;;;;10.19;48.11;94611.22;5007561;28;20526;-77
2021/10/04 03:12:49;;;;;;;2.28;1.98;;;;;;;10.12;48.12;94614.22;5002548;28;20558;-77
2021/10/04 03:15:15;;;;;;;3.45;2.78;;;;;;;9.99;48.18;94595.59;5008851;28;20037;-76
2021/10/04 03:17:40;;;;;;;5.10;2.80;;;;;;;10.02;48.00;94617.09;5011731;28;20037;-76
2021/10/04 03:20:06;;;;;;;3.55;2.45;;;;;;;9.94;48.24;94604.44;5005913;28;20076;-76
2021/10/04 03:22:32;;;;;;;6.25;2.50;;;;;;;9.89;48.46;94602.63;5008054;28;20090;-75
2021/10/04 03:24:57;;;;;;;3.70;2.58;;;;;;;9.92;48.50;94600.50;5006117;28;20037;-75
2021/10/04 03:27:22;;;;;;;3.88;2.35;;;;;;;9.93;48.54;94608.16;5010266;28;20439;-76
2021/10/04 03:29:48;;;;;;;3.10;2.20;;;;;;;9.92;48.43;94598.63;5012597;28;20064;-71
2021/10/04 03:32:13;;;;;;;3.00;2.08;;;;;;;9.98;48.12;94620.56;5011889;28;20037;-75
2021/10/04 03:34:39;;;;;;;2.28;1.90;;;;;;;9.90;48.71;94611.41;5022160;28;20578;-76
2021/10/04 03:37:04;;;;;;;2.75;1.95;;;;;;;9.86;48.76;94613.06;5010095;28;20148;-76
2021/10/04 03:39:30;;;;;;;3.47;2.38;;;;;;;9.78;48.79;94595.13;5012846;28;20040;-77
2021/10/04 03:41:56;;;;;;;3.53;1.70;;;;;;;9.86;48.58;94613.84;5010838;28;20245;-74
2021/10/04 03:44:22;;;;;;;2.83;1.98;;;;;;;9.74;48.68;94594.91;5007175;28;20045;-77
2021/10/04 03:46:47;;;;;;;4.25;2.13;;;;;;;9.84;48.68;94610.69;5011066;28;20123;-76
2021/10/04 03:49:13;;;;;;;3.38;2.90;;;;;;;9.82;48.53;94596.91;5010558;28;20038;-74
2021/10/04 03:51:38;;;;;;;4.30;2.35;;;;;;;9.69;48.97;94594.19;5012227;28;20072;-75
2021/10/04 03:54:04;;;;;;;3.42;2.60;;;;;;;9.78;49.04;94611.06;5007600;28;20029;-76
2021/10/04 03:56:29;;;;;;;3.90;2.53;;;;;;;9.72;49.03;94620.19;5007882;28;20522;-75
2021/10/04 03:58:55;;;;;;;3.50;2.55;;;;;;;9.69;49.21;94615.44;5007706;28;20049;-76
2021/10/04 04:01:21;;;;;;;3.50;2.72;;;;;;;9.64;48.91;94605.66;5006886;28;20072;-72
2021/10/04 04:03:49;;;;;;;3.75;3.13;;;;;;;9.68;49.17;94611.22;5007555;28;20033;-76
2021/10/04 04:06:15;;;;;;;3.28;2.10;;;;;;;9.68;48.90;94605.91;5007614;28;20057;-76
2021/10/04 04:08:41;;;;;;;2.35;1.80;;;;;;;9.66;48.90;94598.22;5006821;28;20212;-72
2021/10/04 04:11:06;;;;;;;2.75;1.70;;;;;;;9.70;49.14;94609.03;5005736;28;20038;-70
2021/10/04 04:13:32;;;;;;;2.58;1.73;;;;;;;9.69;48.81;94612.78;5007004;28;20048;-75
2021/10/04 04:15:57;;;;;;;2.95;2.28;;;;;;;9.74;48.72;94610.84;5005214;28;20029;-77
2021/10/04 04:18:22;;;;;;;3.22;2.08;;;;;;;9.74;48.80;94615.34;5006969;28;20036;-75
2021/10/04 04:20:48;;;;;;;2.70;1.88;;;;;;;9.66;48.78;94624.78;5009874;28;20025;-75
2021/10/04 04:23:14;;;;;;;2.97;2.20;;;;;;;9.71;48.93;94630.00;5008097;28;20078;-76
2021/10/04 04:25:39;;;;;;;3.92;2.33;;;;;;;9.72;48.65;94622.84;5011710;28;20579;-76
2021/10/04 04:28:05;;;;;;;3.88;2.17;;;;;;;9.65;49.00;94623.19;5010340;28;20411;-75
2021/10/04 04:30:30;;;;;;;2.38;1.88;;;;;;;9.71;49.02;94631.88;5004938;28;20109;-76
2021/10/04 04:32:56;;;;;;;3.13;2.13;;;;;;;9.55;49.04;94612.69;5010544;28;20028;-77
2021/10/04 04:35:21;;;;;;;3.30;2.30;;;;;;;9.59;48.91;94618.22;5005839;28;20531;-72
2021/10/04 04:37:50;;;;;;;2.97;1.98;;;;;;;9.52;48.88;94605.31;5007510;28;20041;-75
2021/10/04 04:40:18;;;;;;;2.95;2.03;;;;;;;9.66;49.20;94634.59;5001417;28;20044;-76
2021/10/04 04:42:44;;;;;;;4.15;2.38;;;;;;;9.77;48.90;94628.09;5007497;28;20044;-76
2021/10/04 04:45:13;;;;;;;3.10;2.20;;;;;;;9.68;48.90;94632.47;5009961;28;20041;-75
2021/10/04 04:47:39;;;;;;;4.45;2.25;;;;;;;9.61;49.35;94637.34;4999162;28;20558;-73
2021/10/04 04:50:07;;;;;;;4.72;2.60;;;;;;;9.55;49.18;94622.53;5004831;28;20077;-74
2021/10/04 04:52:33;;;;;;;3.38;2.75;;;;;;;9.65;49.19;94641.78;5006838;28;20041;-75
2021/10/04 04:54:58;;;;;;;2.85;2.45;;;;;;;9.63;49.35;94619.25;5009281;28;20404;-76
2021/10/04 04:57:24;;;;;;;3.50;2.63;;;;;;;9.64;49.42;94621.59;5005634;28;20474;-75
2021/10/04 04:59:51;;;;;;;2.83;2.03;;;;;;;9.75;49.38;94632.88;5005806;28;20117;-76
2021/10/04 05:02:17;;;;;;;2.92;1.95;;;;;;;9.80;49.23;94651.41;5006543;28;20381;-77
2021/10/04 05:04:42;;;;;;;3.05;2.00;;;;;;;9.81;49.43;94645.03;5007250;28;20356;-75
2021/10/04 05:07:07;;;;;;;3.33;2.35;;;;;;;9.86;49.31;94655.56;5007680;28;20373;-76
2021/10/04 05:09:33;;;;;;;4.60;3.58;;;;;;;9.83;49.56;94635.66;5005774;28;20040;-76
2021/10/04 05:11:58;;;;;;;6.88;3.40;;;;;;;9.95;49.17;94626.47;5011623;28;20487;-78
2021/10/04 05:14:24;;;;;;;4.55;2.85;;;;;;;10.12;49.12;94648.03;5011099;28;20189;-77
2021/10/04 05:16:49;;;;;;;3.72;3.00;;;;;;;10.12;49.20;94646.13;5011359;28;20045;-77
2021/10/04 05:19:16;;;;;;;5.35;2.90;;;;;;;10.11;49.10;94619.84;5014095;28;20038;-76
2021/10/04 05:21:41;;;;;;;5.85;3.33;;;;;;;10.10;49.08;94629.69;5010805;28;20099;-76
2021/10/04 05:24:07;;;;;;;7.05;4.00;;;;;;;10.23;49.28;94644.91;5007874;28;20564;-76
2021/10/04 05:26:33;;;;;;;8.88;3.40;;;;;;;10.23;49.63;94647.56;5004394;28;20570;-76
2021/10/04 05:28:58;;;;;;;8.95;4.32;;;;;;;10.19;49.66;94627.97;5013676;28;20140;-78
2021/10/04 05:31:23;;;;;;;6.70;3.28;;;;;;;10.35;49.59;94643.66;5009243;28;20512;-77
2021/10/04 05:33:49;;;;;;;6.22;4.38;;;;;;;10.46;49.24;94651.22;5006942;28;20616;-77
2021/10/04 05:36:14;;;;;;;6.20;4.03;;;;;;;10.52;49.42;94658.03;5011629;28;20087;-77
2021/10/04 05:38:40;;;;;;;4.97;3.63;;;;;;;10.56;49.68;94642.28;5010684;28;20141;-76
2021/10/04 05:41:06;;;;;;;6.40;3.80;;;;;;;10.73;49.00;94653.94;5009693;28;20041;-76
2021/10/04 05:43:34;;;;;;;7.47;4.00;;;;;;;10.62;48.85;94614.50;5008530;28;20395;-76
2021/10/04 05:46:01;;;;;;;9.70;4.25;;;;;;;10.94;47.91;94640.25;5010322;28;20504;-77
2021/10/04 05:48:26;;;;;;;9.50;3.97;;;;;;;11.17;47.55;94648.06;5013942;28;20079;-77
2021/10/04 05:50:52;;;;;;;7.45;4.90;;;;;;;11.18;47.63;94656.84;5008820;28;20144;-72
2021/10/04 05:53:18;;;;;;;8.05;4.93;;;;;;;11.36;47.29;94657.81;5013141;28;20038;-76
2021/10/04 05:55:48;;;;;;;7.13;4.70;;;;;;;11.31;48.25;94657.91;5005486;28;20034;-77
2021/10/04 05:58:13;;;;;;;8.55;5.90;;;;;;;11.16;48.56;94632.38;5011917;28;20710;-76
2021/10/04 06:00:39;;;;;;;9.15;6.65;;;;;;;11.24;48.57;94644.22;5009238;28;20557;-78
2021/10/04 06:03:04;;;;;;;10.60;6.43;;;;;;;11.22;48.15;94638.38;5009661;28;20036;-77
2021/10/04 06:05:30;;;;;;;9.38;5.18;;;;;;;11.53;48.11;94656.16;5005752;28;20041;-76
2021/10/04 06:07:55;;;;;;;6.03;4.45;;;;;;;11.66;47.69;94656.44;5006916;28;20937;-78
2021/10/04 06:10:21;;;;;;;9.25;5.80;;;;;;;11.67;47.92;94661.47;5011514;28;20037;-77
2021/10/04 06:12:47;;;;;;;7.25;4.38;;;;;;;11.72;47.83;94664.03;5000275;28;20813;-73
2021/10/04 06:15:14;;;;;;;8.05;5.68;;;;;;;11.95;46.56;94656.84;5016238;28;20061;-77
2021/10/04 06:17:40;;;;;;;6.80;5.47;;;;;;;11.81;47.34;94648.09;5012509;28;20037;-77
2021/10/04 06:20:07;;;;;;;11.13;5.57;;;;;;;11.99;47.09;94660.50;5011909;28;20069;-76
2021/10/04 06:22:33;;;;;;;6.57;5.07;;;;;;;12.04;47.07;94669.16;5008611;28;20041;-77
2021/10/04 06:24:58;;;;;;;10.07;6.47;;;;;;;11.98;46.77;94651.69;4999232;28;20523;-77
2021/10/04 06:27:23;;;;;;;10.13;5.55;;;;;;;12.10;47.25;94667.19;5012270;28;20408;-78
2021/10/04 06:29:49;;;;;;;10.63;6.00;;;;;;;11.88;47.78;94651.16;5006805;28;20306;-75
2021/10/04 06:32:14;;;;;;;8.00;5.93;;;;;;;12.13;47.35;94673.78;5011182;28;20048;-78
2021/10/04 06:34:40;;;;;;;9.18;5.75;;;;;;;12.35;47.08;94673.81;5007320;28;20487;-77
2021/10/04 06:37:05;;;;;;;11.15;6.47;;;;;;;12.32;47.38;94674.41;5013083;28;20642;-77
2021/10/04 06:39:31;;;;;;;8.88;5.75;;;;;;;12.27;46.91;94663.88;5005163;28;20144;-78
2021/10/04 06:41:56;;;;;;;9.57;6.22;;;;;;;12.45;46.89;94676.22;5011312;28;20025;-76
2021/10/04 06:44:22;;;;;;;10.00;6.03;;;;;;;12.60;46.69;94683.91;5009126;28;20612;-78
2021/10/04 06:46:47;;;;;;;10.20;6.25;;;;;;;12.25;47.24;94677.50;5008943;28;20046;-77
2021/10/04 06:49:13;;;;;;;9.00;6.45;;;;;;;12.37;47.03;94679.63;5007093;28;20053;-77
2021/10/04 06:51:38;;;;;;;9.73;5.65;;;;;;;12.65;45.53;94658.97;5006296;28;20049;-77
2021/10/04 06:54:04;;;;;;;8.70;6.57;;;;;;;12.81;45.89;94684.97;5004523;28;20029;-77
2021/10/04 06:56:31;;;;;;;10.85;7.50;;;;;;;12.72;46.03;94676.13;5000977;28;20103;-77
2021/10/04 06:58:56;;;;;;;8.60;6.05;;;;;;;12.91;45.91;94681.25;5013418;28;20047;-77
2021/10/04 07:01:22;;;;;;;11.38;6.65;;;;;;;12.70;45.94;94689.00;4999362;28;20067;-77
2021/10/04 07:03:47;;;;;;;9.93;6.82;;;;;;;12.95;45.29;94673.44;5014737;28;20037;-77
2021/10/04 07:06:13;;;;;;;10.65;7.72;;;;;;;12.84;45.51;94673.69;4997831;28;20039;-77
2021/10/04 07:08:38;;;;;;;10.75;6.97;;;;;;;13.29;43.84;94673.59;5007873;28;20419;-75
2021/10/04 07:11:04;;;;;;;12.98;7.22;;;;;;;13.26;43.96;94674.19;5008499;28;20076;-76
2021/10/04 07:13:31;;;;;;;12.18;7.03;;;;;;;13.40;43.88;94685.53;5004811;28;20048;-72
2021/10/04 07:16:01;;;;;;;12.35;7.30;;;;;;;13.58;43.19;94681.84;5016838;28;20079;-73
2021/10/04 07:18:26;;;;;;;11.80;7.47;;;;;;;13.46;44.45;94694.22;5001679;28;20117;-77
2021/10/04 07:20:52;;;;;;;12.10;8.52;;;;;;;13.52;43.30;94695.66;5015743;28;20384;-77
2021/10/04 07:23:17;;;;;;;11.10;7.57;;;;;;;13.67;43.66;94690.69;5001278;28;20515;-72
2021/10/04 07:25:43;;;;;;;12.30;7.30;;;;;;;13.70;43.66;94684.72;5010610;28;20069;-76
2021/10/04 07:28:12;;;;;;;12.25;8.30;;;;;;;13.53;43.98;94692.69;5003877;28;20115;-74
2021/10/04 07:30:38;;;;;;;11.45;8.23;;;;;;;13.47;43.46;94664.50;5005557;28;20385;-78
2021/10/04 07:33:05;;;;;;;14.63;7.70;;;;;;;13.50;43.78;94695.94;5010046;28;20580;-77
2021/10/04 07:35:30;;;;;;;10.70;7.53;;;;;;;13.55;43.32;94674.44;5010724;28;20075;-76
2021/10/04 07:38:00;;;;;;;9.55;7.30;;;;;;;13.92;42.50;94681.16;5007081;28;20046;-73
2021/10/04 07:40:26;;;;;;;10.30;6.78;;;;;;;14.01;42.96;94679.28;5009393;28;20037;-77
2021/10/04 07:42:52;;;;;;;11.88;8.48;;;;;;;13.99;42.77;94648.59;5007262;28;20045;-78
2021/10/04 07:45:17;;;;;;;9.65;6.40;;;;;;;14.12;42.59;94659.16;5008908;28;20040;-77
2021/10/04 07:47:43;;;;;;;11.32;6.82;;;;;;;14.26;42.29;94656.31;5011605;28;20227;-77
2021/10/04 07:50:14;;;;;;;8.75;6.10;;;;;;;14.35;42.42;94677.72;5011930;28;20076;-77
2021/10/04 07:52:39;;;;;;;9.07;6.13;;;;;;;14.25;41.77;94668.13;5009874;28;20075;-77
2021/10/04 07:55:05;;;;;;;11.82;6.68;;;;;;;14.30;41.88;94675.19;5016660;28;20773;-77
2021/10/04 07:57:31;;;;;;;8.15;5.75;;;;;;;14.45;42.11;94675.50;5006433;28;20186;-77
2021/10/04 07:59:57;;;;;;;9.73;5.97;;;;;;;14.19;41.42;94666.69;5010516;28;20108;-77
2021/10/04 08:02:22;;;;;;;9.30;6.28;;;;;;;14.33;41.50;94669.19;5011452;28;20569;-76
2021/10/04 08:04:48;;;;;;;7.93;5.28;;;;;;;14.50;41.10;94669.22;5009586;28;20136;-76
2021/10/04 08:07:14;;;;;;;8.18;6.40;;;;;;;14.59;41.38;94678.03;5012456;28;20049;-75
2021/10/04 08:09:39;;;;;;;10.90;7.25;;;;;;;14.49;41.30;94652.34;5009903;28;20107;-76
2021/10/04 08:12:04;;;;;;;11.48;6.07;;;;;;;14.78;42.70;94669.66;5008065;28;20917;-76
2021/10/04 08:14:30;;;;;;;9.50;5.38;;;;;;;14.93;41.48;94661.91;5010109;28;20033;-76
2021/10/04 08:16:56;;;;;;;8.75;5.25;;;;;;;14.95;41.31;94667.75;5008837;28;20042;-77
2021/10/04 08:19:47;;;;;;;7.55;5.50;;;;;;;15.09;40.75;94651.47;5012456;28;20056;-72
2021/10/04 08:22:13;;;;;;;8.07;4.85;;;;;;;15.17;39.81;94650.63;5008955;28;20041;-76
2021/10/04 08:24:39;;;;;;;8.30;4.50;;;;;;;15.25;40.31;94655.19;5011120;28;20338;-78
2021/10/04 08:27:04;;;;;;;7.22;4.68;;;;;;;15.10;39.81;94654.94;5008440;28;20075;-73
2021/10/04 08:29:29;;;;;;;8.35;5.05;;;;;;;14.96;40.07;94660.50;5016441;28;20086;-77
2021/10/04 08:31:55;;;;;;;7.75;4.28;;;;;;;14.96;40.41;94647.09;5006580;28;20068;-73
2021/10/04 08:34:21;;;;;;;8.07;4.90;;;;;;;14.79;40.15;94652.50;5024304;28;20084;-77
2021/10/04 08:36:46;;;;;;;6.25;4.63;;;;;;;14.84;40.32;94653.13;5007545;28;20408;-76
2021/10/04 08:39:11;;;;;;;7.32;4.68;;;;;;;15.07;40.58;94637.59;5009899;28;20169;-78
2021/10/04 08:41:38;;;;;;;6.32;4.78;;;;;;;15.46;39.20;94658.72;5009708;28;20034;-75
2021/10/04 08:44:12;;;;;;;8.38;4.60;;;;;;;15.55;39.40;94649.88;5012188;28;20038;-76
2021/10/04 08:46:41;;;;;;;8.95;4.78;;;;;;;15.33;39.32;94648.22;5012083;28;20060;-76
2021/10/04 08:49:07;;;;;;;6.47;4.10;;;;;;;15.27;39.88;94631.53;5012929;28;20036;-75
2021/10/04 08:51:32;;;;;;;5.65;3.40;;;;;;;15.45;38.79;94637.59;5011812;28;21571;-76
2021/10/04 08:53:58;;;;;;;8.88;3.75;;;;;;;15.55;39.44;94633.78;5012431;28;20042;-78
2021/10/04 08:56:23;;;;;;;5.22;3.75;;;;;;;15.37;38.06;94615.06;5011683;28;20041;-75
2021/10/04 08:58:49;;;;;;;5.85;4.25;;;;;;;15.41;38.99;94612.53;5014320;28;20461;-76
2021/10/04 09:01:21;;;;;;;8.05;3.60;;;;;;;15.62;38.25;94624.13;5014202;28;20707;-78
2021/10/04 09:03:53;;;;;;;7.18;4.13;;;;;;;15.71;38.51;94629.41;5011813;28;20640;-77
2021/10/04 09:06:29;;;;;;;6.72;4.28;;;;;;;15.86;38.62;94634.22;5013981;28;20215;-75
2021/10/04 09:09:06;;;;;;;5.15;3.10;;;;;;;15.93;37.05;94637.19;5011043;28;20606;-77
2021/10/04 09:11:34;;;;;;;4.35;2.97;;;;;;;15.94;37.63;94628.00;5000196;28;20038;-77
2021/10/04 09:14:20;;;;;;;5.97;3.40;;;;;;;16.05;37.52;94620.34;5014752;28;20048;-77
2021/10/04 09:16:54;;;;;;;5.10;3.35;;;;;;;16.09;37.48;94619.34;5000565;28;20094;-76
2021/10/04 09:19:21;;;;;;;5.97;3.85;;;;;;;16.16;36.87;94619.63;5012307;28;20524;-77
2021/10/04 09:22:05;;;;;;;5.63;3.30;;;;;;;16.33;36.22;94618.72;5010493;28;20328;-76
2021/10/04 09:24:31;;;;;;;4.32;3.00;;;;;;;16.33;35.70;94608.75;5012490;28;20026;-75
2021/10/04 09:26:57;;;;;;;5.47;3.13;;;;;;;16.38;36.47;94607.78;5014204;28;20534;-77
2021/10/04 09:29:24;;;;;;;5.72;2.72;;;;;;;16.33;35.91;94592.66;5010728;28;20037;-75
2021/10/04 09:31:51;;;;;;;4.97;3.22;;;;;;;16.35;36.00;94613.81;5014359;28;20045;-77
2021/10/04 09:34:26;;;;;;;3.10;2.67;;;;;;;16.54;35.61;94610.63;5011337;28;21048;-77
2021/10/04 09:36:52;;;;;;;5.35;4.60;;;;;;;16.35;36.21;94600.38;5011075;28;20072;-76
2021/10/04 09:39:37;;;;;;;6.45;3.38;;;;;;;16.60;35.40;94603.94;5011132;28;20040;-77
2021/10/04 09:42:06;;;;;;;5.40;3.47;;;;;;;16.58;35.84;94601.56;5013845;28;20034;-73
2021/10/04 09:45:03;;;;;;;5.18;3.72;;;;;;;16.67;35.66;94593.44;5013083;28;20499;-76
2021/10/04 09:47:31;;;;;;;5.70;3.85;;;;;;;16.58;35.25;94595.41;5012989;28;20077;-77
2021/10/04 09:50:10;;;;;;;5.43;3.20;;;;;;;16.69;36.02;94588.50;5011777;28;20038;-77
2021/10/04 09:52:41;;;;;;;4.43;3.22;;;;;;;16.57;36.46;94588.50;5012632;28;20869;-74
2021/10/04 09:55:30;;;;;;;3.80;2.97;;;;;;;16.42;35.73;94583.75;5011691;28;20499;-77
2021/10/04 09:57:59;;;;;;;4.38;2.95;;;;;;;16.35;36.24;94580.81;5012412;28;20182;-77
2021/10/04 10:00:27;;;;;;;5.95;3.55;;;;;;;16.61;36.35;94584.81;5011601;28;20026;-78
2021/10/04 10:02:55;;;;;;;4.80;4.13;;;;;;;16.65;35.86;94574.97;5008640;28;20144;-77
2021/10/04 10:05:23;;;;;;;5.22;3.22;;;;;;;16.65;36.23;94563.44;5009936;28;20538;-77
2021/10/04 10:07:49;;;;;;;4.70;3.35;;;;;;;16.83;36.81;94570.19;5008402;28;20033;-76
2021/10/04 10:10:15;;;;;;;3.38;2.92;;;;;;;17.01;36.57;94558.09;5012428;28;20037;-76
2021/10/04 10:12:46;;;;;;;9.50;2.97;;;;;;;17.11;35.86;94564.97;5002832;28;20845;-73
2021/10/04 10:15:20;;;;;;;4.65;3.22;;;;;;;17.21;35.37;94561.84;5015670;28;20212;-74
2021/10/04 10:17:48;;;;;;;11.15;3.65;;;;;;;17.41;35.17;94563.63;5009273;28;20041;-76
2021/10/04 10:20:22;;;;;;;4.38;3.10;;;;;;;17.55;35.07;94558.66;5007735;28;20100;-71
2021/10/04 10:22:50;;;;;;;6.50;3.72;;;;;;;17.59;35.53;94564.16;5010190;28;20042;-76
2021/10/04 10:25:35;;;;;;;4.72;3.20;;;;;;;17.69;35.36;94563.72;5019519;28;20065;-75
2021/10/04 10:28:03;;;;;;;4.63;2.92;;;;;;;17.74;34.95;94558.09;5012480;28;20041;-75
2021/10/04 10:30:29;;;;;;;4.75;3.22;;;;;;;17.91;35.31;94547.03;5012274;28;20492;-75
2021/10/04 10:32:58;;;;;;;4.22;2.92;;;;;;;17.85;35.19;94556.47;5014822;28;20037;-76
2021/10/04 10:35:47;;;;;;;4.65;3.20;;;;;;;17.95;35.13;94550.66;5004499;28;20507;-77
2021/10/04 10:38:12;;;;;;;8.70;3.97;;;;;;;17.99;34.49;94542.69;5009574;28;20155;-76
2021/10/04 10:40:38;;;;;;;4.32;3.03;;;;;;;17.93;34.24;94526.00;5002358;28;20508;-77
2021/10/04 10:43:07;;;;;;;5.32;3.15;;;;;;;18.11;34.26;94541.84;5015752;28;20429;-76
2021/10/04 10:45:41;;;;;;;6.32;3.30;;;;;;;18.11;37.36;94536.47;5002810;28;20606;-75
2021/10/04 10:48:07;;;;;;;2.70;2.22;;;;;;;18.24;35.11;94537.97;5007381;28;20116;-72
2021/10/04 10:50:37;;;;;;;5.22;3.08;;;;;;;18.29;33.89;94527.72;5005462;28;20065;-76
2021/10/04 10:53:10;;;;;;;5.53;2.78;;;;;;;18.20;33.20;94523.63;5003429;28;20041;-75
2021/10/04 10:55:44;;;;;;;5.20;3.00;;;;;;;18.36;33.90;94517.16;5011367;28;20046;-73
2021/10/04 10:58:21;;;;;;;3.47;2.58;;;;;;;18.35;33.71;94515.59;5010006;28;20045;-77
2021/10/04 11:01:13;;;;;;;5.18;3.38;;;;;;;18.24;33.80;94497.59;5008339;28;20037;-72
2021/10/04 11:03:51;;;;;;;4.20;3.47;;;;;;;18.40;33.49;94518.03;5012170;28;20588;-74
2021/10/04 11:06:17;;;;;;;5.03;2.80;;;;;;;18.39;33.26;94510.28;5006999;28;20029;-77
2021/10/04 11:08:43;;;;;;;5.00;2.92;;;;;;;18.39;32.83;94504.91;4999899;28;20100;-76
2021/10/04 11:11:12;;;;;;;6.00;2.63;;;;;;;18.46;33.04;94505.09;5007080;28;20045;-77
2021/10/04 11:13:57;;;;;;;2.80;2.20;;;;;;;18.31;32.29;94489.69;5004592;28;20125;-75
2021/10/04 11:16:23;;;;;;;4.47;2.50;;;;;;;18.44;31.99;94499.28;5006751;28;20038;-78
2021/10/04 11:18:49;;;;;;;4.03;2.20;;;;;;;18.52;32.69;94494.88;5006742;28;20788;-78
2021/10/04 11:21:20;;;;;;;4.97;2.42;;;;;;;18.71;33.07;94489.59;5005637;28;20447;-76
2021/10/04 11:23:50;;;;;;;7.63;2.97;;;;;;;18.64;32.20;94482.09;4999843;28;20120;-76
2021/10/04 11:26:25;;;;;;;3.08;2.53;;;;;;;18.55;32.15;94481.47;5004983;28;20034;-77
2021/10/04 11:28:57;;;;;;;5.57;2.90;;;;;;;18.73;31.55;94480.03;5006558;28;20037;-76
2021/10/04 11:31:34;;;;;;;3.50;2.58;;;;;;;18.80;31.14;94480.22;5005120;28;20049;-77
2021/10/04 11:34:08;;;;;;;3.20;2.38;;;;;;;18.83;31.42;94471.41;5007999;28;20034;-77